Terminal Aerodrome Forecast
Issued by NWS

Home | Current Version | Previous Version | Text Only | Print | Product List | Glossary On
Versions: 1 2 3 4 5 6 7 8 9 10 11 12 13 14 15
000
FTUS42 KTBW 250540
TAFPIE
TAF
KPIE 250540Z 2506/2606 VRB03KT P6SM SCT025 BKN060
     FM251400 14005KT P6SM SCT030 BKN100
     FM251800 23006KT P6SM VCTS SCT040CB BKN100
     FM252100 31008KT P6SM SCT040 BKN100
     FM260100 VRB04KT P6SM SCT050 OVC250=

USA.gov is the U.S. government's official web portal to all federal, state and local government web resources and services.